Time;durP1;ratioP1;P1;durP2;ratioP2;P2;SDS_P1;SDS_P2;PMS_P1;PMS_P2;Temp;Humidity;BMP_temperature;BMP_pressure;BME280_temperature;BME280_humidity;BME280_pressure;Samples;Min_cycle;Max_cycle;Signal;HPM_P1;HPM_P2
2021/12/18 00:00:21;;;;;;;7.40;2.88;;;;;;;;;;5107275;28;20055;-76
2021/12/18 00:02:47;;;;;;;14.30;3.00;;;;;;;;;;5093135;28;20185;-74
2021/12/18 00:05:13;;;;;;;13.52;3.38;;;;;;;;;;5092381;28;20117;-74
2021/12/18 00:07:39;;;;;;;21.92;3.33;;;;;;;;;;5111215;28;20082;-73
2021/12/18 00:10:06;;;;;;;22.23;2.90;;;;;;;;;;5106373;28;20062;-73
2021/12/18 00:12:32;;;;;;;16.80;3.00;;;;;;;;;;5101814;27;20048;-72
2021/12/18 00:14:58;;;;;;;21.02;3.25;;;;;;;;;;5108756;27;21596;-74
2021/12/18 00:17:24;;;;;;;22.83;3.88;;;;;;;;;;5101964;28;20687;-71
2021/12/18 00:19:50;;;;;;;13.77;2.95;;;;;;;;;;5104310;28;20446;-71
2021/12/18 00:22:16;;;;;;;20.80;3.20;;;;;;;;;;5112612;27;20044;-71
2021/12/18 00:24:42;;;;;;;14.65;2.95;;;;;;;;;;5108559;27;20068;-71
2021/12/18 00:27:08;;;;;;;10.98;2.70;;;;;;;;;;5110241;27;20078;-71
2021/12/18 00:29:34;;;;;;;14.90;3.88;;;;;;;;;;5111038;28;20050;-71
2021/12/18 00:32:00;;;;;;;15.52;3.15;;;;;;;;;;5109557;27;20043;-71
2021/12/18 00:34:26;;;;;;;28.95;3.60;;;;;;;;;;5093505;28;20046;-71
2021/12/18 00:36:53;;;;;;;28.45;3.70;;;;;;;;;;5114255;27;20423;-71
2021/12/18 00:39:19;;;;;;;12.63;2.60;;;;;;;;;;5110860;28;20055;-71
2021/12/18 00:44:13;;;;;;;28.42;3.28;;;;;;;;;;5109729;28;20502;-72
2021/12/18 00:46:41;;;;;;;16.27;3.40;;;;;;;;;;5108988;27;20058;-71
2021/12/18 00:49:08;;;;;;;20.48;2.92;;;;;;;;;;5107041;28;20114;-80
2021/12/18 00:51:34;;;;;;;20.73;3.15;;;;;;;;;;5106433;28;20130;-71
2021/12/18 00:54:01;;;;;;;28.75;3.33;;;;;;;;;;5108938;28;20162;-72
2021/12/18 00:56:27;;;;;;;22.50;3.15;;;;;;;;;;5105792;28;20387;-71
2021/12/18 00:58:53;;;;;;;16.38;3.17;;;;;;;;;;5107939;28;20052;-71
2021/12/18 01:01:21;;;;;;;16.90;3.03;;;;;;;;;;5101268;28;20564;-72
2021/12/18 01:03:48;;;;;;;19.77;2.83;;;;;;;;;;5107191;28;20062;-71
2021/12/18 01:06:15;;;;;;;16.73;2.97;;;;;;;;;;5105565;28;20048;-71
2021/12/18 01:08:41;;;;;;;10.52;2.58;;;;;;;;;;5101477;28;20395;-75
2021/12/18 01:14:17;;;;;;;18.58;3.17;;;;;;;;;;5096934;28;20052;-71
2021/12/18 01:24:38;;;;;;;16.13;2.97;;;;;;;;;;5110363;27;20058;-71
2021/12/18 01:27:04;;;;;;;16.92;3.08;;;;;;;;;;5105762;28;20051;-71
2021/12/18 01:29:30;;;;;;;14.07;3.25;;;;;;;;;;5107651;28;20410;-71
2021/12/18 01:31:56;;;;;;;16.55;3.60;;;;;;;;;;5103572;27;20044;-71
2021/12/18 01:34:22;;;;;;;17.83;3.33;;;;;;;;;;5103878;28;20048;-71
2021/12/18 01:36:48;;;;;;;13.50;3.53;;;;;;;;;;5088670;28;20118;-71
2021/12/18 01:39:15;;;;;;;16.13;2.90;;;;;;;;;;5093234;27;20418;-71
2021/12/18 01:42:02;;;;;;;16.58;3.10;;;;;;;;;;5107719;28;20112;-77
2021/12/18 01:52:36;;;;;;;19.27;2.85;;;;;;;;;;5103543;28;20460;-70
2021/12/18 01:55:02;;;;;;;27.42;2.95;;;;;;;;;;5099938;28;20510;-71
2021/12/18 01:57:28;;;;;;;31.40;2.95;;;;;;;;;;5104782;28;20067;-71
2021/12/18 01:59:55;;;;;;;50.08;3.22;;;;;;;;;;5090806;28;20083;-72
2021/12/18 02:02:22;;;;;;;13.15;2.45;;;;;;;;;;5134785;27;20047;-71
2021/12/18 02:04:48;;;;;;;8.10;2.35;;;;;;;;;;5104050;28;20043;-71
2021/12/18 02:07:15;;;;;;;6.95;2.45;;;;;;;;;;5106293;28;20047;-79
2021/12/18 02:10:02;;;;;;;12.73;2.35;;;;;;;;;;5106724;28;20048;-71
2021/12/18 02:12:40;;;;;;;11.52;1.92;;;;;;;;;;5113517;27;20054;-71
2021/12/18 02:20:58;;;;;;;14.70;2.83;;;;;;;;;;5127202;27;20134;-71
2021/12/18 02:23:25;;;;;;;14.02;3.25;;;;;;;;;;5120673;27;20047;-71
2021/12/18 02:25:51;;;;;;;22.13;3.53;;;;;;;;;;5127556;27;20046;-74
2021/12/18 02:28:22;;;;;;;23.15;3.92;;;;;;;;;;5126595;27;20047;-71
2021/12/18 02:30:49;;;;;;;36.35;4.63;;;;;;;;;;5127499;27;20071;-71
2021/12/18 02:33:15;;;;;;;35.65;4.72;;;;;;;;;;5125962;27;20443;-75
2021/12/18 02:35:53;;;;;;;22.33;4.00;;;;;;;;;;5118974;27;20065;-71
2021/12/18 02:38:23;;;;;;;42.28;5.38;;;;;;;;;;5109416;27;20039;-73
2021/12/18 02:43:16;;;;;;;21.08;4.28;;;;;;;;;;5110425;27;20043;-71
2021/12/18 02:45:42;;;;;;;25.85;4.80;;;;;;;;;;5126244;27;20119;-71
2021/12/18 02:48:08;;;;;;;22.50;5.55;;;;;;;;;;5128000;27;20070;-71
2021/12/18 02:50:39;;;;;;;20.77;4.93;;;;;;;;;;5127436;27;20456;-71
2021/12/18 02:53:06;;;;;;;17.77;4.10;;;;;;;;;;5123973;27;20131;-71
2021/12/18 02:55:32;;;;;;;13.43;2.92;;;;;;;;;;5126347;27;20573;-71
2021/12/18 02:57:58;;;;;;;20.10;3.53;;;;;;;;;;5124903;27;20108;-71
2021/12/18 03:00:26;;;;;;;19.67;3.03;;;;;;;;;;5125704;28;20063;-71
2021/12/18 03:02:52;;;;;;;13.13;2.88;;;;;;;;;;5109734;28;20116;-71
2021/12/18 03:05:26;;;;;;;8.68;2.17;;;;;;;;;;5114097;28;20061;-78
2021/12/18 03:07:59;;;;;;;8.02;1.88;;;;;;;;;;5130235;27;20138;-71
2021/12/18 03:24:22;;;;;;;11.75;2.40;;;;;;;;;;5105511;28;20043;-76
2021/12/18 03:26:49;;;;;;;14.00;2.17;;;;;;;;;;5109999;28;20509;-71
2021/12/18 03:29:15;;;;;;;8.52;1.33;;;;;;;;;;5105831;28;20036;-71
2021/12/18 03:31:41;;;;;;;6.63;1.55;;;;;;;;;;5106021;28;20096;-71
2021/12/18 03:34:07;;;;;;;15.02;1.50;;;;;;;;;;5106548;28;20039;-74
2021/12/18 03:36:34;;;;;;;13.40;1.77;;;;;;;;;;5108887;28;20495;-71
2021/12/18 03:39:00;;;;;;;8.95;1.23;;;;;;;;;;5089722;28;20044;-70
2021/12/18 03:41:26;;;;;;;11.68;1.50;;;;;;;;;;5106997;28;20169;-71
2021/12/18 03:43:52;;;;;;;6.57;1.20;;;;;;;;;;5108844;27;20108;-71
2021/12/18 03:46:18;;;;;;;10.93;1.63;;;;;;;;;;5111299;27;20110;-71
2021/12/18 03:48:44;;;;;;;10.60;1.70;;;;;;;;;;5107711;27;20521;-71
2021/12/18 03:51:10;;;;;;;5.45;1.30;;;;;;;;;;5101804;28;20581;-71
2021/12/18 03:53:36;;;;;;;4.60;1.67;;;;;;;;;;5109798;28;20081;-75
2021/12/18 03:56:02;;;;;;;11.20;2.10;;;;;;;;;;5109402;28;20061;-71
2021/12/18 03:58:29;;;;;;;12.25;2.15;;;;;;;;;;5109257;28;20044;-74
2021/12/18 04:00:55;;;;;;;26.45;2.80;;;;;;;;;;5106833;28;20394;-71
2021/12/18 04:03:21;;;;;;;25.27;3.22;;;;;;;;;;5109348;28;20079;-71
2021/12/18 04:05:48;;;;;;;22.92;2.90;;;;;;;;;;5088009;28;20083;-71
2021/12/18 04:08:14;;;;;;;9.82;2.38;;;;;;;;;;5090460;28;20052;-71
2021/12/18 04:10:41;;;;;;;18.63;2.58;;;;;;;;;;5100728;28;20105;-71
2021/12/18 04:13:08;;;;;;;30.88;3.47;;;;;;;;;;5107329;27;20443;-72
2021/12/18 04:15:34;;;;;;;22.90;3.03;;;;;;;;;;5097903;28;20051;-71
2021/12/18 04:18:01;;;;;;;24.02;2.58;;;;;;;;;;5101156;28;20055;-75
2021/12/18 04:20:27;;;;;;;30.13;3.58;;;;;;;;;;5105625;27;20046;-71
2021/12/18 04:22:53;;;;;;;31.98;3.50;;;;;;;;;;5098838;28;20493;-71
2021/12/18 04:25:19;;;;;;;25.65;3.53;;;;;;;;;;5083869;28;20152;-70
2021/12/18 04:27:45;;;;;;;23.83;3.10;;;;;;;;;;5086612;28;20051;-72
2021/12/18 04:30:12;;;;;;;25.00;2.97;;;;;;;;;;5096417;28;20048;-71
2021/12/18 04:32:38;;;;;;;26.48;2.95;;;;;;;;;;5100276;28;20040;-71
2021/12/18 04:35:04;;;;;;;18.30;2.58;;;;;;;;;;5098895;28;20052;-71
2021/12/18 04:37:30;;;;;;;29.02;2.80;;;;;;;;;;5102589;28;20532;-71
2021/12/18 04:39:56;;;;;;;14.05;2.22;;;;;;;;;;5104122;28;20094;-71
2021/12/18 04:42:22;;;;;;;20.02;2.92;;;;;;;;;;5099148;28;20387;-71
2021/12/18 04:44:48;;;;;;;11.02;2.45;;;;;;;;;;5080504;28;20048;-71
2021/12/18 04:47:14;;;;;;;19.40;2.72;;;;;;;;;;5097513;28;20046;-76
2021/12/18 04:49:41;;;;;;;22.38;2.97;;;;;;;;;;5104368;28;20501;-75
2021/12/18 04:52:07;;;;;;;17.33;3.13;;;;;;;;;;5099613;28;20080;-71
2021/12/18 04:54:33;;;;;;;12.98;3.30;;;;;;;;;;5096720;28;20417;-71
2021/12/18 04:56:59;;;;;;;29.92;3.42;;;;;;;;;;5101033;28;20444;-71
2021/12/18 04:59:26;;;;;;;12.65;3.17;;;;;;;;;;5097645;28;20113;-71
2021/12/18 05:01:52;;;;;;;29.67;4.63;;;;;;;;;;5098393;28;20040;-70
2021/12/18 05:04:19;;;;;;;36.33;4.78;;;;;;;;;;5103521;28;20478;-72
2021/12/18 05:06:47;;;;;;;33.30;5.57;;;;;;;;;;5094124;28;20052;-71
2021/12/18 05:09:14;;;;;;;33.60;5.55;;;;;;;;;;5099266;28;20039;-71
2021/12/18 05:11:40;;;;;;;47.97;6.38;;;;;;;;;;5100449;28;20032;-72
2021/12/18 05:14:07;;;;;;;47.42;7.63;;;;;;;;;;5102385;28;20044;-71
2021/12/18 05:16:33;;;;;;;31.20;6.38;;;;;;;;;;5100264;28;20078;-71
2021/12/18 05:19:00;;;;;;;29.67;6.57;;;;;;;;;;5101484;28;20039;-71
2021/12/18 05:21:26;;;;;;;53.40;8.98;;;;;;;;;;5102944;27;20086;-71
2021/12/18 05:23:52;;;;;;;34.72;7.68;;;;;;;;;;5096841;28;20051;-71
2021/12/18 05:26:18;;;;;;;48.72;8.68;;;;;;;;;;5107026;28;20096;-71
2021/12/18 05:28:44;;;;;;;43.63;8.70;;;;;;;;;;5105959;28;20044;-72
2021/12/18 05:31:13;;;;;;;56.92;9.85;;;;;;;;;;5109184;28;20044;-71
2021/12/18 05:33:39;;;;;;;48.28;9.95;;;;;;;;;;5107531;28;20036;-72
2021/12/18 05:36:24;;;;;;;57.55;11.25;;;;;;;;;;5108926;27;20043;-71
2021/12/18 05:38:50;;;;;;;55.28;10.82;;;;;;;;;;5090958;28;20857;-73
2021/12/18 05:41:16;;;;;;;52.58;11.82;;;;;;;;;;5102875;28;20521;-71
2021/12/18 05:43:42;;;;;;;47.50;11.43;;;;;;;;;;5104175;28;20143;-71
2021/12/18 05:46:08;;;;;;;62.92;14.95;;;;;;;;;;5106112;28;20051;-73
2021/12/18 05:48:34;;;;;;;60.03;13.57;;;;;;;;;;5110310;27;20452;-71
2021/12/18 05:51:02;;;;;;;70.50;12.77;;;;;;;;;;5104792;28;20490;-71
2021/12/18 05:53:28;;;;;;;62.08;11.65;;;;;;;;;;5106537;28;20087;-74
2021/12/18 05:55:54;;;;;;;54.03;11.65;;;;;;;;;;5107472;28;20068;-74
2021/12/18 05:58:20;;;;;;;48.63;10.93;;;;;;;;;;5106198;28;20043;-71
2021/12/18 06:00:46;;;;;;;44.70;9.60;;;;;;;;;;5100980;28;20040;-71
2021/12/18 06:03:12;;;;;;;55.05;9.65;;;;;;;;;;5105687;28;20044;-71
2021/12/18 06:05:38;;;;;;;38.70;9.00;;;;;;;;;;5074421;28;20372;-71
2021/12/18 06:08:10;;;;;;;49.75;9.88;;;;;;;;;;5103274;28;20473;-71
2021/12/18 06:10:37;;;;;;;38.80;8.70;;;;;;;;;;5104196;28;20123;-71
2021/12/18 06:13:03;;;;;;;38.20;8.20;;;;;;;;;;5123513;27;20068;-72
2021/12/18 06:15:33;;;;;;;38.53;8.38;;;;;;;;;;5110169;27;20454;-74
2021/12/18 06:17:59;;;;;;;38.70;8.43;;;;;;;;;;5123147;27;20378;-73
2021/12/18 06:20:26;;;;;;;36.10;7.85;;;;;;;;;;5115171;27;20075;-71
2021/12/18 06:22:52;;;;;;;36.47;8.25;;;;;;;;;;5114284;27;20077;-74
2021/12/18 06:25:18;;;;;;;30.63;7.70;;;;;;;;;;5149524;27;20132;-72
2021/12/18 06:27:45;;;;;;;42.33;8.20;;;;;;;;;;5126934;27;20125;-77
2021/12/18 06:30:11;;;;;;;30.77;7.45;;;;;;;;;;5129993;27;20042;-71
2021/12/18 06:32:38;;;;;;;48.38;9.05;;;;;;;;;;5146900;27;20527;-71
2021/12/18 06:35:04;;;;;;;35.88;7.90;;;;;;;;;;5130685;27;20074;-76
2021/12/18 06:37:30;;;;;;;38.53;8.65;;;;;;;;;;5146328;27;20047;-71
2021/12/18 06:39:56;;;;;;;38.80;8.30;;;;;;;;;;5132912;27;20098;-71
2021/12/18 06:42:22;;;;;;;36.25;8.57;;;;;;;;;;5113968;27;20182;-71
2021/12/18 06:44:48;;;;;;;37.97;8.63;;;;;;;;;;5147525;27;20045;-71
2021/12/18 06:47:14;;;;;;;37.22;8.48;;;;;;;;;;5112559;27;20058;-71
2021/12/18 06:49:41;;;;;;;38.50;8.75;;;;;;;;;;5123294;27;20047;-73
2021/12/18 06:52:07;;;;;;;42.45;8.65;;;;;;;;;;5145966;27;20031;-71
2021/12/18 06:54:33;;;;;;;43.17;8.85;;;;;;;;;;5143627;27;20039;-71
2021/12/18 06:56:59;;;;;;;41.55;8.73;;;;;;;;;;5124894;27;20131;-71
2021/12/18 06:59:25;;;;;;;38.63;8.80;;;;;;;;;;5156265;27;20392;-71
2021/12/18 07:01:52;;;;;;;36.65;8.35;;;;;;;;;;5155675;27;20617;-70
2021/12/18 07:04:19;;;;;;;28.40;7.68;;;;;;;;;;5123147;27;20074;-71
2021/12/18 07:06:45;;;;;;;26.35;8.20;;;;;;;;;;5138229;27;20054;-71
2021/12/18 07:09:11;;;;;;;27.25;8.95;;;;;;;;;;5117896;27;20138;-72
2021/12/18 07:11:37;;;;;;;25.25;8.15;;;;;;;;;;5147156;27;20477;-71
2021/12/18 07:14:03;;;;;;;26.08;8.18;;;;;;;;;;5124055;27;20051;-72
2021/12/18 07:16:29;;;;;;;28.73;8.65;;;;;;;;;;5142475;27;20064;-71
2021/12/18 07:18:56;;;;;;;26.00;7.88;;;;;;;;;;5124728;27;20485;-71
2021/12/18 07:21:22;;;;;;;23.23;7.88;;;;;;;;;;5114066;27;20123;-71
2021/12/18 07:23:48;;;;;;;26.90;7.88;;;;;;;;;;5128678;27;20426;-71
2021/12/18 07:26:14;;;;;;;26.15;7.03;;;;;;;;;;5127658;27;20047;-71
2021/12/18 07:28:41;;;;;;;22.25;6.85;;;;;;;;;;5155224;27;20046;-81
2021/12/18 07:31:07;;;;;;;24.92;7.63;;;;;;;;;;5145817;27;20045;-71
2021/12/18 07:33:35;;;;;;;25.80;7.15;;;;;;;;;;5147346;27;20121;-71
2021/12/18 07:36:01;;;;;;;22.60;6.50;;;;;;;;;;5130784;27;20051;-70
2021/12/18 07:38:27;;;;;;;33.22;17.48;;;;;;;;;;5132881;27;20054;-71
2021/12/18 07:40:54;;;;;;;73.57;48.03;;;;;;;;;;5132430;27;20054;-74
2021/12/18 07:43:20;;;;;;;22.95;9.85;;;;;;;;;;5132681;27;20039;-73
2021/12/18 07:45:46;;;;;;;18.38;6.55;;;;;;;;;;5130299;27;20484;-71
2021/12/18 07:48:12;;;;;;;19.70;6.68;;;;;;;;;;5144486;27;20045;-73
2021/12/18 07:50:38;;;;;;;22.73;7.32;;;;;;;;;;5113102;27;20499;-72
2021/12/18 07:53:04;;;;;;;20.65;6.90;;;;;;;;;;5131057;27;20532;-71
2021/12/18 07:55:30;;;;;;;22.27;6.72;;;;;;;;;;5157823;27;20125;-71
2021/12/18 07:57:56;;;;;;;19.88;5.95;;;;;;;;;;5134171;27;20039;-71
2021/12/18 08:00:23;;;;;;;17.88;6.35;;;;;;;;;;5132320;27;20050;-74
2021/12/18 08:02:49;;;;;;;21.75;6.43;;;;;;;;;;5130901;27;20470;-70
2021/12/18 08:05:16;;;;;;;18.80;5.63;;;;;;;;;;5134177;27;20076;-70
2021/12/18 08:07:42;;;;;;;23.30;6.65;;;;;;;;;;5131112;27;20035;-71
2021/12/18 08:10:08;;;;;;;16.58;5.85;;;;;;;;;;5145519;27;20107;-75
2021/12/18 08:12:34;;;;;;;20.92;5.60;;;;;;;;;;5143140;27;20047;-71
2021/12/18 08:15:01;;;;;;;17.95;5.70;;;;;;;;;;5163108;27;21407;-71
2021/12/18 08:17:27;;;;;;;16.95;5.88;;;;;;;;;;5115361;27;20457;-73
2021/12/18 08:19:53;;;;;;;18.55;5.95;;;;;;;;;;5151206;27;20378;-70
2021/12/18 08:22:20;;;;;;;14.65;5.07;;;;;;;;;;5127775;27;20042;-71
2021/12/18 08:24:46;;;;;;;16.88;5.75;;;;;;;;;;5132875;27;20051;-79
2021/12/18 08:27:13;;;;;;;17.75;6.32;;;;;;;;;;5131057;27;20047;-72
2021/12/18 08:29:39;;;;;;;12.73;5.25;;;;;;;;;;5130845;27;20043;-71
2021/12/18 08:32:05;;;;;;;16.40;5.50;;;;;;;;;;5132042;27;20229;-71
2021/12/18 08:34:31;;;;;;;14.20;4.38;;;;;;;;;;5148253;27;20049;-71
2021/12/18 08:36:57;;;;;;;13.07;4.82;;;;;;;;;;5132355;27;20039;-71
2021/12/18 08:39:23;;;;;;;14.23;4.68;;;;;;;;;;5151596;27;20042;-71
2021/12/18 08:41:49;;;;;;;16.50;5.35;;;;;;;;;;5129255;27;20043;-71
2021/12/18 08:44:15;;;;;;;16.08;4.80;;;;;;;;;;5154432;27;20047;-71
2021/12/18 08:46:42;;;;;;;19.55;4.60;;;;;;;;;;5133075;27;20455;-71
2021/12/18 08:49:08;;;;;;;15.00;4.70;;;;;;;;;;5139745;27;20043;-71
2021/12/18 08:51:37;;;;;;;14.52;4.65;;;;;;;;;;5113160;27;20129;-71
2021/12/18 08:54:03;;;;;;;12.75;4.75;;;;;;;;;;5114649;27;20385;-71
2021/12/18 08:56:29;;;;;;;14.73;5.28;;;;;;;;;;5147857;27;20093;-71
2021/12/18 08:58:55;;;;;;;18.15;5.47;;;;;;;;;;5125757;27;20123;-70
2021/12/18 09:01:23;;;;;;;17.77;5.00;;;;;;;;;;5123790;27;20065;-70
2021/12/18 09:03:49;;;;;;;14.98;5.20;;;;;;;;;;5126443;27;20038;-73
2021/12/18 09:06:15;;;;;;;20.40;5.57;;;;;;;;;;5124633;27;20042;-77
2021/12/18 09:08:41;;;;;;;17.02;5.20;;;;;;;;;;5122627;27;20477;-71
2021/12/18 09:11:07;;;;;;;16.42;4.28;;;;;;;;;;5146277;27;20625;-72
2021/12/18 09:13:33;;;;;;;15.13;4.30;;;;;;;;;;5148582;27;20410;-71
2021/12/18 09:15:59;;;;;;;16.38;4.90;;;;;;;;;;5130264;27;20126;-71
2021/12/18 09:18:25;;;;;;;14.90;5.25;;;;;;;;;;5145580;27;20043;-71
2021/12/18 09:20:51;;;;;;;12.93;5.28;;;;;;;;;;5160796;27;20042;-72
2021/12/18 09:23:19;;;;;;;14.75;5.15;;;;;;;;;;5130580;27;20121;-71
2021/12/18 09:25:46;;;;;;;18.23;5.88;;;;;;;;;;5133020;27;20088;-71
2021/12/18 09:28:12;;;;;;;20.73;5.88;;;;;;;;;;5163084;27;20154;-72
2021/12/18 09:30:39;;;;;;;13.98;6.15;;;;;;;;;;5136410;27;20077;-72
2021/12/18 09:33:05;;;;;;;18.92;6.32;;;;;;;;;;5111013;27;20035;-71
2021/12/18 09:35:31;;;;;;;18.58;5.88;;;;;;;;;;5120578;27;20047;-71
2021/12/18 09:37:57;;;;;;;15.60;6.53;;;;;;;;;;5123385;27;20046;-73
2021/12/18 09:40:24;;;;;;;22.40;6.10;;;;;;;;;;5127138;27;20465;-72
2021/12/18 09:42:50;;;;;;;19.67;6.72;;;;;;;;;;5130362;27;20043;-72
2021/12/18 09:45:17;;;;;;;19.33;7.03;;;;;;;;;;5145110;27;20035;-71
2021/12/18 09:47:44;;;;;;;23.60;5.60;;;;;;;;;;5128685;27;20050;-72
2021/12/18 09:50:11;;;;;;;14.98;5.68;;;;;;;;;;5123213;27;20774;-74
2021/12/18 09:52:38;;;;;;;14.65;4.57;;;;;;;;;;5128828;27;20050;-74
2021/12/18 09:55:06;;;;;;;19.17;5.07;;;;;;;;;;5111721;27;20046;-74
2021/12/18 09:57:32;;;;;;;15.38;4.90;;;;;;;;;;5133412;27;20381;-74
2021/12/18 09:59:58;;;;;;;8.50;4.63;;;;;;;;;;5157811;27;20505;-75
2021/12/18 10:02:24;;;;;;;12.15;4.55;;;;;;;;;;5116433;27;20043;-75
2021/12/18 10:04:50;;;;;;;9.93;4.30;;;;;;;;;;5117260;27;20054;-74
2021/12/18 10:07:21;;;;;;;11.63;4.57;;;;;;;;;;5132011;27;20393;-78
2021/12/18 10:09:48;;;;;;;7.82;4.50;;;;;;;;;;5112340;27;20046;-76
2021/12/18 10:12:15;;;;;;;10.68;5.35;;;;;;;;;;5127166;27;20134;-73
2021/12/18 10:14:46;;;;;;;14.02;5.68;;;;;;;;;;5126968;27;20110;-79
2021/12/18 10:17:19;;;;;;;16.23;6.72;;;;;;;;;;5154007;27;20041;-73
2021/12/18 10:19:45;;;;;;;17.48;6.35;;;;;;;;;;5131867;27;20201;-82
2021/12/18 10:22:13;;;;;;;15.55;6.25;;;;;;;;;;5133713;27;20042;-77
2021/12/18 10:24:43;;;;;;;15.68;6.30;;;;;;;;;;5129070;27;20042;-74
2021/12/18 10:27:20;;;;;;;16.90;7.35;;;;;;;;;;5128972;27;20041;-75
2021/12/18 10:29:47;;;;;;;13.52;5.72;;;;;;;;;;5136365;27;20486;-75
2021/12/18 10:32:15;;;;;;;13.93;6.03;;;;;;;;;;5111904;27;20401;-75
2021/12/18 10:34:42;;;;;;;19.00;7.25;;;;;;;;;;5127011;27;20054;-76
2021/12/18 10:37:11;;;;;;;10.07;5.50;;;;;;;;;;5123395;27;20050;-76
2021/12/18 10:39:39;;;;;;;12.68;5.50;;;;;;;;;;5124800;27;20057;-74
2021/12/18 10:42:26;;;;;;;12.80;6.25;;;;;;;;;;5110334;27;20038;-75
2021/12/18 10:44:55;;;;;;;15.95;5.65;;;;;;;;;;5160012;27;20489;-73
2021/12/18 10:47:21;;;;;;;17.13;5.70;;;;;;;;;;5159784;27;20049;-74
2021/12/18 10:49:47;;;;;;;19.05;7.00;;;;;;;;;;5140810;27;20179;-80
2021/12/18 10:52:13;;;;;;;13.55;5.43;;;;;;;;;;5129350;27;20474;-75
2021/12/18 10:54:39;;;;;;;18.45;6.57;;;;;;;;;;5137073;27;20042;-78
2021/12/18 10:57:05;;;;;;;16.55;6.57;;;;;;;;;;5136758;27;20120;-74
2021/12/18 10:59:36;;;;;;;13.73;6.90;;;;;;;;;;5133212;27;20050;-74
2021/12/18 11:02:11;;;;;;;20.52;7.20;;;;;;;;;;5117728;27;20049;-79
2021/12/18 11:04:39;;;;;;;24.30;6.82;;;;;;;;;;5114381;27;20051;-72
2021/12/18 11:07:21;;;;;;;13.55;5.95;;;;;;;;;;5112832;27;20489;-73
2021/12/18 11:10:40;;;;;;;15.65;5.85;;;;;;;;;;5130215;27;20069;-72
2021/12/18 11:15:18;;;;;;;13.57;4.88;;;;;;;;;;5126733;27;20084;-71
2021/12/18 11:17:46;;;;;;;14.55;5.40;;;;;;;;;;5125769;27;20054;-70
2021/12/18 11:20:12;;;;;;;11.02;4.68;;;;;;;;;;5124558;27;20099;-72
2021/12/18 11:22:38;;;;;;;13.55;4.88;;;;;;;;;;5143782;27;20402;-75
2021/12/18 11:25:06;;;;;;;12.30;5.05;;;;;;;;;;5128658;27;20050;-71
2021/12/18 11:27:33;;;;;;;12.05;4.95;;;;;;;;;;5132306;27;20046;-70
2021/12/18 11:30:06;;;;;;;7.57;4.05;;;;;;;;;;5129603;27;20043;-73
2021/12/18 11:32:37;;;;;;;8.65;4.18;;;;;;;;;;5126821;27;20050;-75
2021/12/18 11:35:05;;;;;;;14.18;5.00;;;;;;;;;;5125337;27;20576;-75
2021/12/18 11:37:45;;;;;;;12.32;4.90;;;;;;;;;;5125341;27;20050;-74
2021/12/18 11:40:13;;;;;;;9.63;4.20;;;;;;;;;;5114818;27;20091;-73
2021/12/18 11:42:39;;;;;;;13.68;4.72;;;;;;;;;;5131794;27;20045;-74
2021/12/18 11:45:07;;;;;;;13.95;5.28;;;;;;;;;;5130957;27;20046;-74
2021/12/18 11:47:40;;;;;;;10.43;4.47;;;;;;;;;;5132702;27;20051;-74
2021/12/18 11:50:18;;;;;;;15.23;5.63;;;;;;;;;;5131593;27;20041;-73
2021/12/18 11:52:54;;;;;;;16.45;4.28;;;;;;;;;;5164159;27;20047;-73
2021/12/18 11:55:20;;;;;;;13.35;4.15;;;;;;;;;;5128673;27;20050;-73
2021/12/18 11:57:51;;;;;;;9.18;3.63;;;;;;;;;;5113213;27;20554;-70
2021/12/18 12:00:23;;;;;;;10.30;3.85;;;;;;;;;;5126374;27;20099;-71
2021/12/18 12:02:56;;;;;;;12.45;3.67;;;;;;;;;;5159903;27;20047;-73
2021/12/18 12:05:44;;;;;;;14.10;3.72;;;;;;;;;;5128514;27;20693;-71
2021/12/18 12:08:22;;;;;;;12.27;3.05;;;;;;;;;;5123727;27;20038;-72
2021/12/18 12:11:15;;;;;;;8.18;3.17;;;;;;;;;;5125578;27;20338;-72
2021/12/18 12:13:56;;;;;;;14.10;4.03;;;;;;;;;;5138837;27;20073;-71
2021/12/18 12:16:41;;;;;;;9.80;2.83;;;;;;;;;;5123735;27;20050;-79
2021/12/18 12:19:07;;;;;;;8.95;2.90;;;;;;;;;;5118891;27;20644;-72
2021/12/18 12:21:44;;;;;;;12.80;3.85;;;;;;;;;;5099160;27;20087;-78
2021/12/18 12:24:10;;;;;;;15.23;3.10;;;;;;;;;;5107260;27;20066;-79
2021/12/18 12:26:37;;;;;;;12.82;3.20;;;;;;;;;;5121625;27;20038;-73
2021/12/18 12:29:07;;;;;;;11.05;3.63;;;;;;;;;;5122778;27;20042;-73
2021/12/18 12:31:34;;;;;;;21.58;4.30;;;;;;;;;;5118949;27;20046;-74
2021/12/18 12:34:36;;;;;;;13.70;3.95;;;;;;;;;;5142051;27;20041;-74
2021/12/18 12:37:21;;;;;;;14.40;3.28;;;;;;;;;;5060887;28;20139;-72
2021/12/18 12:39:53;;;;;;;10.93;3.40;;;;;;;;;;5143455;27;20061;-73
2021/12/18 12:42:19;;;;;;;13.70;3.80;;;;;;;;;;5120788;27;20036;-73
2021/12/18 12:44:55;;;;;;;11.77;3.72;;;;;;;;;;5120231;27;20049;-73
2021/12/18 12:47:27;;;;;;;15.15;3.75;;;;;;;;;;5117617;27;20069;-74
2021/12/18 12:50:16;;;;;;;13.02;3.28;;;;;;;;;;5121170;27;20042;-78
2021/12/18 12:52:53;;;;;;;12.85;3.67;;;;;;;;;;5109793;27;20062;-83
2021/12/18 12:55:20;;;;;;;17.60;3.35;;;;;;;;;;5119489;27;20043;-80
2021/12/18 12:57:47;;;;;;;11.23;3.30;;;;;;;;;;5155226;27;20053;-74
2021/12/18 13:00:15;;;;;;;13.48;3.40;;;;;;;;;;5125092;27;20042;-75
2021/12/18 13:03:01;;;;;;;15.90;3.97;;;;;;;;;;5128466;27;20039;-73
2021/12/18 13:05:28;;;;;;;8.63;3.15;;;;;;;;;;5120994;27;20051;-74
2021/12/18 13:07:59;;;;;;;11.70;3.13;;;;;;;;;;5129363;27;20398;-74
2021/12/18 13:10:31;;;;;;;14.48;3.38;;;;;;;;;;5128520;27;20050;-72
2021/12/18 13:13:05;;;;;;;9.50;2.90;;;;;;;;;;5150895;27;20058;-76
2021/12/18 13:15:47;;;;;;;10.05;2.40;;;;;;;;;;5133437;27;20072;-76
2021/12/18 13:18:14;;;;;;;7.55;1.95;;;;;;;;;;5136491;27;20125;-78
2021/12/18 13:20:46;;;;;;;10.75;2.80;;;;;;;;;;5111990;27;20099;-76
2021/12/18 13:23:18;;;;;;;9.43;2.40;;;;;;;;;;5130804;27;20102;-79
2021/12/18 13:25:48;;;;;;;7.35;2.63;;;;;;;;;;5162685;27;20191;-76
2021/12/18 13:28:14;;;;;;;5.97;2.30;;;;;;;;;;5138397;27;20053;-77
2021/12/18 13:30:41;;;;;;;6.38;2.80;;;;;;;;;;5118925;27;20039;-78
2021/12/18 13:33:08;;;;;;;18.75;3.83;;;;;;;;;;5159732;27;20405;-78
2021/12/18 13:35:35;;;;;;;10.45;3.03;;;;;;;;;;5121325;27;20050;-77
2021/12/18 13:38:09;;;;;;;10.77;3.45;;;;;;;;;;5129613;27;20118;-78
2021/12/18 13:40:37;;;;;;;7.00;2.92;;;;;;;;;;5136382;27;20042;-78
2021/12/18 13:43:08;;;;;;;10.50;3.33;;;;;;;;;;5129014;27;20080;-79
2021/12/18 13:45:34;;;;;;;11.65;3.40;;;;;;;;;;5126426;27;20038;-79
2021/12/18 13:48:05;;;;;;;11.13;3.67;;;;;;;;;;5128335;27;20034;-79
2021/12/18 13:50:31;;;;;;;9.63;2.88;;;;;;;;;;5129953;27;20038;-78
2021/12/18 13:52:59;;;;;;;10.25;2.85;;;;;;;;;;5129209;27;20078;-78
2021/12/18 13:55:46;;;;;;;9.18;2.90;;;;;;;;;;5130742;27;20047;-76
2021/12/18 13:58:19;;;;;;;8.90;2.67;;;;;;;;;;5130581;27;20489;-78
2021/12/18 14:00:48;;;;;;;8.75;2.75;;;;;;;;;;5125521;27;20039;-79
2021/12/18 14:03:38;;;;;;;10.32;2.92;;;;;;;;;;5125118;27;20428;-79
2021/12/18 14:06:06;;;;;;;14.18;3.60;;;;;;;;;;5120183;27;20134;-79
2021/12/18 14:08:35;;;;;;;9.27;3.25;;;;;;;;;;5121855;27;20462;-79
2021/12/18 14:11:02;;;;;;;7.72;2.95;;;;;;;;;;5127308;27;20124;-80
2021/12/18 14:13:28;;;;;;;8.63;3.78;;;;;;;;;;5122747;27;20047;-78
2021/12/18 14:16:08;;;;;;;11.60;3.00;;;;;;;;;;5120339;27;20406;-79
2021/12/18 14:18:36;;;;;;;13.10;2.90;;;;;;;;;;5107324;27;20150;-79
2021/12/18 14:21:02;;;;;;;12.82;3.42;;;;;;;;;;5127464;27;20541;-79
2021/12/18 14:23:32;;;;;;;11.23;3.22;;;;;;;;;;5109733;27;20436;-77
2021/12/18 14:26:19;;;;;;;11.35;3.17;;;;;;;;;;5128260;27;20130;-77
2021/12/18 14:28:45;;;;;;;10.80;3.17;;;;;;;;;;5137739;27;20058;-79
2021/12/18 14:31:30;;;;;;;12.02;3.70;;;;;;;;;;5132640;27;20035;-78
2021/12/18 14:34:16;;;;;;;11.25;3.40;;;;;;;;;;5124527;27;20046;-77
2021/12/18 14:36:49;;;;;;;9.32;3.25;;;;;;;;;;5150689;27;20397;-78
2021/12/18 14:39:22;;;;;;;7.82;3.25;;;;;;;;;;5125618;27;20070;-78
2021/12/18 14:41:55;;;;;;;9.88;3.88;;;;;;;;;;5127546;27;20043;-79
2021/12/18 14:44:22;;;;;;;10.45;4.05;;;;;;;;;;5157674;27;20501;-78
2021/12/18 14:47:02;;;;;;;12.63;3.75;;;;;;;;;;5130874;27;20143;-77
2021/12/18 14:49:28;;;;;;;11.95;4.35;;;;;;;;;;5124832;27;20049;-77
2021/12/18 14:52:01;;;;;;;14.32;4.50;;;;;;;;;;5110393;27;20041;-78
2021/12/18 14:54:27;;;;;;;11.82;4.10;;;;;;;;;;5111950;27;20062;-77
2021/12/18 14:57:13;;;;;;;11.13;3.92;;;;;;;;;;5107458;27;20555;-74
2021/12/18 14:59:39;;;;;;;13.63;4.45;;;;;;;;;;5148282;27;20038;-79
2021/12/18 15:02:05;;;;;;;12.25;4.00;;;;;;;;;;5101196;27;20493;-76
2021/12/18 15:04:31;;;;;;;9.15;3.90;;;;;;;;;;5126322;27;20050;-75
2021/12/18 15:06:57;;;;;;;12.40;3.38;;;;;;;;;;5131196;27;20128;-75
2021/12/18 15:09:24;;;;;;;13.85;3.97;;;;;;;;;;5143419;27;20051;-75
2021/12/18 15:11:51;;;;;;;9.43;4.38;;;;;;;;;;5128739;27;20168;-74
2021/12/18 15:14:25;;;;;;;12.55;4.40;;;;;;;;;;5112729;27;20138;-76
2021/12/18 15:16:55;;;;;;;7.13;3.45;;;;;;;;;;5128133;27;20046;-75
2021/12/18 15:19:23;;;;;;;7.95;2.95;;;;;;;;;;5125946;27;20054;-77
2021/12/18 15:21:51;;;;;;;14.13;3.72;;;;;;;;;;5115794;27;20078;-75
2021/12/18 15:24:18;;;;;;;14.20;3.80;;;;;;;;;;5145891;27;20062;-76